createdAt,value
2023-05-21T00:00:28.722Z,99.90
2023-05-21T00:02:01.534Z,99.90
2023-05-21T00:03:34.013Z,99.90
2023-05-21T00:05:11.649Z,99.90
2023-05-21T00:06:46.500Z,99.90
2023-05-21T00:08:19.365Z,99.90
2023-05-21T00:09:52.957Z,99.90
2023-05-21T00:11:26.077Z,99.90
2023-05-21T00:12:59.030Z,99.90
2023-05-21T00:14:31.892Z,99.90
2023-05-21T00:16:06.370Z,99.90
2023-05-21T00:17:39.951Z,99.90
2023-05-21T00:19:12.975Z,99.90
2023-05-21T00:20:45.698Z,99.90
2023-05-21T00:22:18.582Z,99.90
2023-05-21T00:23:51.349Z,99.90
2023-05-21T00:25:23.159Z,99.90
2023-05-21T00:26:55.976Z,99.90
2023-05-21T00:28:28.971Z,99.90
2023-05-21T00:30:00.783Z,99.90
2023-05-21T00:31:35.098Z,99.90
2023-05-21T00:33:07.574Z,99.90
2023-05-21T00:34:40.741Z,99.90
2023-05-21T00:36:14.503Z,99.90
2023-05-21T00:37:47.730Z,99.90
2023-05-21T00:39:20.612Z,99.90
2023-05-21T00:40:53.416Z,99.90
2023-05-21T00:42:27.457Z,99.90
2023-05-21T00:44:00.379Z,99.90
2023-05-21T00:45:33.249Z,99.90
2023-05-21T00:47:08.158Z,99.90
2023-05-21T00:48:41.029Z,99.90
2023-05-21T00:50:14.892Z,99.90
2023-05-21T00:51:48.233Z,99.90
2023-05-21T00:53:21.093Z,99.90
2023-05-21T00:54:53.432Z,99.90
2023-05-21T00:56:27.209Z,99.90
2023-05-21T00:58:00.086Z,99.90
2023-05-21T00:59:33.286Z,99.90
2023-05-21T01:01:07.118Z,99.90
2023-05-21T01:02:42.051Z,99.90
2023-05-21T01:04:15.053Z,99.90
2023-05-21T01:05:48.819Z,99.90
2023-05-21T01:07:21.896Z,99.90
2023-05-21T01:08:56.183Z,99.90
2023-05-21T01:10:29.412Z,99.90
2023-05-21T01:12:01.658Z,99.90
2023-05-21T01:13:35.749Z,99.90
2023-05-21T01:15:10.746Z,99.90
2023-05-21T01:16:46.234Z,99.90
2023-05-21T01:18:20.642Z,99.90
2023-05-21T01:19:54.689Z,99.90
2023-05-21T01:21:29.329Z,99.90
2023-05-21T01:23:04.024Z,99.90
2023-05-21T01:24:37.092Z,99.90
2023-05-21T01:26:12.910Z,99.90
2023-05-21T01:27:44.686Z,99.90
2023-05-21T01:29:17.502Z,99.90
2023-05-21T01:30:50.354Z,99.90
2023-05-21T01:32:27.753Z,99.90
2023-05-21T01:34:02.276Z,99.90
2023-05-21T01:35:36.878Z,99.90
2023-05-21T01:37:13.861Z,99.90
2023-05-21T01:38:50.225Z,99.90
2023-05-21T01:40:26.912Z,99.90
2023-05-21T01:41:59.821Z,99.90
2023-05-21T01:43:33.731Z,99.90
2023-05-21T01:45:07.618Z,99.90
2023-05-21T01:46:40.969Z,99.90
2023-05-21T01:48:13.916Z,99.90
2023-05-21T01:49:47.136Z,99.90
2023-05-21T01:51:20.254Z,99.90
2023-05-21T01:52:53.588Z,99.90
2023-05-21T01:54:26.740Z,99.90
2023-05-21T01:55:59.573Z,99.90
2023-05-21T01:57:31.619Z,99.90
2023-05-21T01:59:04.665Z,99.90
2023-05-21T02:00:37.469Z,99.90
2023-05-21T02:02:10.346Z,99.90
2023-05-21T02:03:43.295Z,99.90
2023-05-21T02:05:16.425Z,99.90
2023-05-21T02:06:49.261Z,99.90
2023-05-21T02:08:23.480Z,99.90
2023-05-21T02:09:57.708Z,99.90
2023-05-21T02:11:30.434Z,99.90
2023-05-21T02:13:02.290Z,99.90
2023-05-21T02:14:35.077Z,99.90
2023-05-21T02:16:10.274Z,99.90
2023-05-21T02:17:43.151Z,99.90
2023-05-21T02:19:16.118Z,99.90
2023-05-21T02:20:49.003Z,99.90
2023-05-21T02:22:21.762Z,99.90
2023-05-21T02:23:54.647Z,99.90
2023-05-21T02:25:27.817Z,99.90
2023-05-21T02:27:00.598Z,99.90
2023-05-21T02:28:33.796Z,99.90
2023-05-21T02:30:08.500Z,99.90
2023-05-21T02:31:41.347Z,99.90
2023-05-21T02:33:15.573Z,99.90
2023-05-21T02:34:48.369Z,99.90
2023-05-21T02:36:21.247Z,99.90
2023-05-21T02:37:54.403Z,99.90
2023-05-21T02:39:27.195Z,99.90
2023-05-21T02:41:01.340Z,99.90
2023-05-21T02:42:34.401Z,99.90
2023-05-21T02:44:07.251Z,99.90
2023-05-21T02:45:40.137Z,99.90
2023-05-21T02:47:12.981Z,99.90
2023-05-21T02:48:45.822Z,99.90
2023-05-21T02:50:17.885Z,99.90
2023-05-21T02:51:50.734Z,99.90
2023-05-21T02:53:23.452Z,99.90
2023-05-21T02:54:56.252Z,99.90
2023-05-21T02:56:30.388Z,99.90
2023-05-21T02:58:03.161Z,99.90
2023-05-21T02:59:35.970Z,99.90
2023-05-21T03:01:08.728Z,99.90
2023-05-21T03:02:41.573Z,99.90
2023-05-21T03:04:14.319Z,99.90
2023-05-21T03:05:48.348Z,99.90
2023-05-21T03:07:21.780Z,99.90
2023-05-21T03:08:54.672Z,99.90
2023-05-21T03:10:26.690Z,99.90
2023-05-21T03:12:00.818Z,99.90
2023-05-21T03:13:33.738Z,99.90
2023-05-21T03:15:07.067Z,99.90
2023-05-21T03:16:41.696Z,99.90
2023-05-21T03:18:14.636Z,99.90
2023-05-21T03:19:49.089Z,99.90
2023-05-21T03:21:22.690Z,99.90
2023-05-21T03:22:56.093Z,99.90
2023-05-21T03:24:29.353Z,99.90
2023-05-21T03:26:02.470Z,99.90
2023-05-21T03:27:36.846Z,99.90
2023-05-21T03:29:09.764Z,99.90
2023-05-21T03:30:46.397Z,99.90
2023-05-21T03:32:19.456Z,99.90
2023-05-21T03:33:52.669Z,99.90
2023-05-21T03:35:24.445Z,99.90
2023-05-21T03:36:57.219Z,99.90
2023-05-21T03:38:30.013Z,99.90
2023-05-21T03:40:04.497Z,99.90
2023-05-21T03:41:37.274Z,99.90
2023-05-21T03:43:11.368Z,99.90
2023-05-21T03:44:44.177Z,99.90
2023-05-21T03:46:16.009Z,99.90
2023-05-21T03:47:49.456Z,99.90
2023-05-21T03:49:22.266Z,99.90
2023-05-21T03:50:55.525Z,99.90
2023-05-21T03:52:28.295Z,99.90
2023-05-21T03:54:01.418Z,99.90
2023-05-21T03:55:34.482Z,99.90
2023-05-21T03:57:07.533Z,99.90
2023-05-21T03:58:40.830Z,99.90
2023-05-21T04:00:14.049Z,99.90
2023-05-21T04:01:46.939Z,99.90
2023-05-21T04:03:18.933Z,99.90
2023-05-21T04:04:53.619Z,99.90
2023-05-21T04:06:26.526Z,99.90
2023-05-21T04:08:00.215Z,99.90
2023-05-21T04:09:34.711Z,99.90
2023-05-21T04:11:09.101Z,99.90
2023-05-21T04:12:40.963Z,99.90
2023-05-21T04:14:15.073Z,99.90
2023-05-21T04:15:48.686Z,99.90
2023-05-21T04:17:21.705Z,99.90
2023-05-21T04:18:55.441Z,99.90
2023-05-21T04:20:28.342Z,99.90
2023-05-21T04:22:01.139Z,99.90
2023-05-21T04:23:36.641Z,99.90
2023-05-21T04:25:08.984Z,99.90
2023-05-21T04:26:42.392Z,99.90
2023-05-21T04:28:20.365Z,99.90
2023-05-21T04:29:55.696Z,99.90
2023-05-21T04:31:27.682Z,99.90
2023-05-21T04:33:00.712Z,99.90
2023-05-21T04:34:33.974Z,99.90
2023-05-21T04:36:09.788Z,99.90
2023-05-21T04:37:45.884Z,99.90
2023-05-21T04:39:18.776Z,99.90
2023-05-21T04:40:51.956Z,99.90
2023-05-21T04:42:24.903Z,99.90
2023-05-21T04:43:56.760Z,99.90
2023-05-21T04:45:30.893Z,99.90
2023-05-21T04:47:03.821Z,99.90
2023-05-21T04:48:36.690Z,99.90
2023-05-21T04:50:10.472Z,99.90
2023-05-21T04:51:43.279Z,99.90
2023-05-21T04:53:16.140Z,99.90
2023-05-21T04:54:48.994Z,99.90
2023-05-21T04:56:22.474Z,99.90
2023-05-21T04:57:55.430Z,99.90
2023-05-21T04:59:28.290Z,99.90
2023-05-21T05:01:03.319Z,99.90
2023-05-21T05:02:36.307Z,99.90
2023-05-21T05:04:09.583Z,99.90
2023-05-21T05:05:42.424Z,99.90
2023-05-21T05:07:15.661Z,99.90
2023-05-21T05:08:48.473Z,99.90
2023-05-21T05:10:20.447Z,99.90
2023-05-21T05:11:53.445Z,99.90
2023-05-21T05:13:25.230Z,99.90
2023-05-21T05:14:58.017Z,99.90
2023-05-21T05:16:32.258Z,99.90
2023-05-21T05:18:05.199Z,99.90
2023-05-21T05:19:38.093Z,99.90
2023-05-21T05:21:09.928Z,99.90
2023-05-21T05:22:42.752Z,99.90
2023-05-21T05:24:16.231Z,99.90
2023-05-21T05:25:49.081Z,99.90
2023-05-21T05:27:21.935Z,99.90
2023-05-21T05:28:53.864Z,99.90
2023-05-21T05:30:26.824Z,99.90
2023-05-21T05:32:01.124Z,99.90
2023-05-21T05:33:34.018Z,99.90
2023-05-21T05:35:07.697Z,99.90
2023-05-21T05:36:40.631Z,99.90
2023-05-21T05:38:13.541Z,99.90
2023-05-21T05:39:46.479Z,99.90
2023-05-21T05:41:19.335Z,99.90
2023-05-21T05:42:52.787Z,99.90
2023-05-21T05:44:24.675Z,99.90
2023-05-21T05:45:57.589Z,99.90
2023-05-21T05:47:31.875Z,99.90
2023-05-21T05:49:04.789Z,99.90
2023-05-21T05:50:36.828Z,99.90
2023-05-21T05:52:09.648Z,99.90
2023-05-21T05:53:42.479Z,99.90
2023-05-21T05:55:15.444Z,99.90
2023-05-21T05:56:48.291Z,99.90
2023-05-21T05:58:21.289Z,99.90
2023-05-21T05:59:54.062Z,99.90
2023-05-21T06:01:26.969Z,99.90
2023-05-21T06:03:01.244Z,99.90
2023-05-21T06:04:34.136Z,99.90
2023-05-21T06:06:07.042Z,99.90
2023-05-21T06:07:40.942Z,99.90
2023-05-21T06:09:13.862Z,99.90
2023-05-21T06:10:46.764Z,99.90
2023-05-21T06:12:19.710Z,99.90
2023-05-21T06:13:52.519Z,99.90
2023-05-21T06:15:25.352Z,99.90
2023-05-21T06:16:58.249Z,99.90
2023-05-21T06:18:32.420Z,99.90
2023-05-21T06:20:06.036Z,99.90
2023-05-21T06:21:38.956Z,99.90
2023-05-21T06:23:11.862Z,99.80
2023-05-21T06:24:44.702Z,99.40
2023-05-21T06:26:19.137Z,99.40
2023-05-21T06:27:52.075Z,99.00
2023-05-21T06:29:24.904Z,98.80
2023-05-21T06:30:57.736Z,98.40
2023-05-21T06:32:30.628Z,98.40
2023-05-21T06:34:05.101Z,98.20
2023-05-21T06:35:39.923Z,97.90
2023-05-21T06:37:12.749Z,97.80
2023-05-21T06:38:45.555Z,97.70
2023-05-21T06:40:17.440Z,97.80
2023-05-21T06:41:50.355Z,97.60
2023-05-21T06:43:23.311Z,97.30
2023-05-21T06:44:58.659Z,97.20
2023-05-21T06:46:31.573Z,97.10
2023-05-21T06:48:04.804Z,96.90
2023-05-21T06:49:39.089Z,96.80
2023-05-21T06:51:11.928Z,96.70
2023-05-21T06:52:44.812Z,96.60
2023-05-21T06:54:17.686Z,96.50
2023-05-21T06:55:53.775Z,96.50
2023-05-21T06:57:26.816Z,96.30
2023-05-21T06:58:59.997Z,96.00
2023-05-21T07:00:32.811Z,95.80
2023-05-21T07:02:05.853Z,95.70
2023-05-21T07:03:38.891Z,95.40
2023-05-21T07:05:13.270Z,95.40
2023-05-21T07:06:46.165Z,95.40
2023-05-21T07:08:19.967Z,95.30
2023-05-21T07:09:52.839Z,95.30
2023-05-21T07:11:28.802Z,95.10
2023-05-21T07:13:01.710Z,95.10
2023-05-21T07:14:34.694Z,94.50
2023-05-21T07:16:08.000Z,93.80
2023-05-21T07:17:41.055Z,94.00
2023-05-21T07:19:14.020Z,93.90
2023-05-21T07:20:48.200Z,93.50
2023-05-21T07:22:21.064Z,93.30
2023-05-21T07:23:53.882Z,93.10
2023-05-21T07:25:26.676Z,92.90
2023-05-21T07:26:59.526Z,92.80
2023-05-21T07:28:32.290Z,92.10
2023-05-21T07:30:05.548Z,92.10
2023-05-21T07:31:38.425Z,92.10
2023-05-21T07:33:12.654Z,91.90
2023-05-21T07:34:45.509Z,91.80
2023-05-21T07:36:19.712Z,91.70
2023-05-21T07:37:52.583Z,91.40
2023-05-21T07:39:25.559Z,91.40
2023-05-21T07:40:58.365Z,91.30
2023-05-21T07:42:31.990Z,91.20
2023-05-21T07:44:04.977Z,91.10
2023-05-21T07:45:38.131Z,91.00
2023-05-21T07:47:11.085Z,91.00
2023-05-21T07:48:44.118Z,90.90
2023-05-21T07:50:16.229Z,90.90
2023-05-21T07:51:50.671Z,90.60
2023-05-21T07:53:23.657Z,90.70
2023-05-21T07:54:56.512Z,90.70
2023-05-21T07:56:29.564Z,90.70
2023-05-21T07:58:02.354Z,90.50
2023-05-21T07:59:35.206Z,90.20
2023-05-21T08:01:08.062Z,90.10
2023-05-21T08:02:41.008Z,89.80
2023-05-21T08:04:14.130Z,89.60
2023-05-21T08:05:48.949Z,89.60
2023-05-21T08:07:23.477Z,89.70
2023-05-21T08:08:56.306Z,90.00
2023-05-21T08:10:29.153Z,89.60
2023-05-21T08:12:02.003Z,89.60
2023-05-21T08:13:34.832Z,89.50
2023-05-21T08:15:08.454Z,89.70
2023-05-21T08:16:41.361Z,90.00
2023-05-21T08:18:14.283Z,88.80
2023-05-21T08:19:47.033Z,89.00
2023-05-21T08:21:19.845Z,89.20
2023-05-21T08:22:54.917Z,89.20
2023-05-21T08:24:27.805Z,88.70
2023-05-21T08:26:00.604Z,88.40
2023-05-21T08:27:33.449Z,88.30
2023-05-21T08:29:06.527Z,87.90
2023-05-21T08:30:39.314Z,88.10
2023-05-21T08:32:12.240Z,88.20
2023-05-21T08:33:51.169Z,87.80
2023-05-21T08:35:23.932Z,88.30
2023-05-21T08:36:56.730Z,88.20
2023-05-21T08:38:31.265Z,87.90
2023-05-21T08:40:05.018Z,87.80
2023-05-21T08:41:38.158Z,87.60
2023-05-21T08:43:13.833Z,86.70
2023-05-21T08:44:48.268Z,86.00
2023-05-21T08:46:23.787Z,85.90
2023-05-21T08:47:57.301Z,85.90
2023-05-21T08:49:31.944Z,86.00
2023-05-21T08:51:05.319Z,85.60
2023-05-21T08:52:38.233Z,85.50
2023-05-21T08:54:13.959Z,85.40
2023-05-21T08:55:47.236Z,85.70
2023-05-21T08:57:20.600Z,85.50
2023-05-21T08:58:53.364Z,85.20
2023-05-21T09:00:26.158Z,84.90
2023-05-21T09:01:59.988Z,84.80
2023-05-21T09:03:33.145Z,84.80
2023-05-21T09:05:06.349Z,85.00
2023-05-21T09:06:39.512Z,84.80
2023-05-21T09:08:15.436Z,84.70
2023-05-21T09:09:50.894Z,84.60
2023-05-21T09:11:23.765Z,84.10
2023-05-21T09:12:56.622Z,84.00
2023-05-21T09:14:29.521Z,84.50
2023-05-21T09:16:02.427Z,84.40
2023-05-21T09:17:35.516Z,84.60
2023-05-21T09:19:08.332Z,84.10
2023-05-21T09:20:41.363Z,83.80
2023-05-21T09:22:14.123Z,83.60
2023-05-21T09:23:46.931Z,83.40
2023-05-21T09:25:22.325Z,83.20
2023-05-21T09:26:56.380Z,83.20
2023-05-21T09:28:29.292Z,83.20
2023-05-21T09:30:02.698Z,82.90
2023-05-21T09:31:36.686Z,82.00
2023-05-21T09:33:09.668Z,82.10
2023-05-21T09:34:42.515Z,82.70
2023-05-21T09:36:15.390Z,81.80
2023-05-21T09:37:49.461Z,82.20
2023-05-21T09:39:31.239Z,82.90
2023-05-21T09:41:07.001Z,83.40
2023-05-21T09:42:40.100Z,83.50
2023-05-21T09:44:13.525Z,83.50
2023-05-21T09:45:51.697Z,83.40
2023-05-21T09:47:24.621Z,82.70
2023-05-21T09:48:57.538Z,82.80
2023-05-21T09:50:31.478Z,82.60
2023-05-21T09:52:04.317Z,82.40
2023-05-21T09:53:37.128Z,82.30
2023-05-21T09:55:12.396Z,82.20
2023-05-21T09:56:46.968Z,81.80
2023-05-21T09:58:19.849Z,81.80
2023-05-21T09:59:52.730Z,82.10
2023-05-21T10:01:26.027Z,82.00
2023-05-21T10:03:01.668Z,82.20
2023-05-21T10:04:34.635Z,82.00
2023-05-21T10:06:08.779Z,82.40
2023-05-21T10:07:42.754Z,82.00
2023-05-21T10:09:16.330Z,81.70
2023-05-21T10:10:50.377Z,81.70
2023-05-21T10:12:25.116Z,81.80
2023-05-21T10:13:59.285Z,81.40
2023-05-21T10:15:33.862Z,81.00
2023-05-21T10:17:07.423Z,80.70
2023-05-21T10:18:40.827Z,80.50
2023-05-21T10:20:13.806Z,80.40
2023-05-21T10:21:46.929Z,80.30
2023-05-21T10:23:19.772Z,80.00
2023-05-21T10:24:53.548Z,79.80
2023-05-21T10:26:26.889Z,79.60
2023-05-21T10:28:01.342Z,79.60
2023-05-21T10:29:34.794Z,79.40
2023-05-21T10:31:07.795Z,79.20
2023-05-21T10:32:41.242Z,79.20
2023-05-21T10:34:14.871Z,79.70
2023-05-21T10:35:48.239Z,79.60
2023-05-21T10:37:21.600Z,79.30
2023-05-21T10:38:55.031Z,80.30
2023-05-21T10:40:28.572Z,81.10
2023-05-21T10:42:06.682Z,81.60
2023-05-21T10:43:46.993Z,81.80
2023-05-21T10:45:24.383Z,81.50
2023-05-21T10:47:12.995Z,81.90
2023-05-21T10:48:53.371Z,81.60
2023-05-21T10:50:44.764Z,81.20
2023-05-21T10:52:22.535Z,81.20
2023-05-21T10:54:11.038Z,80.50
2023-05-21T10:55:51.436Z,80.90
2023-05-21T10:57:33.210Z,80.40
2023-05-21T10:59:21.796Z,79.00
2023-05-21T11:00:55.802Z,79.40
2023-05-21T11:02:29.904Z,79.90
2023-05-21T11:04:03.232Z,80.00
2023-05-21T11:05:38.491Z,80.30
2023-05-21T11:07:12.006Z,80.10
2023-05-21T11:08:48.798Z,79.90
2023-05-21T11:10:30.877Z,79.20
2023-05-21T11:12:04.711Z,78.20
2023-05-21T11:13:48.835Z,77.80
2023-05-21T11:15:23.129Z,78.10
2023-05-21T11:16:57.002Z,77.40
2023-05-21T11:18:43.727Z,76.90
2023-05-21T11:20:16.658Z,75.80
2023-05-21T11:21:51.573Z,72.00
2023-05-21T11:23:23.515Z,72.40
2023-05-21T11:24:57.054Z,71.70
2023-05-21T11:26:30.030Z,71.50
2023-05-21T11:28:06.307Z,70.70
2023-05-21T11:29:45.748Z,70.40
2023-05-21T11:31:26.970Z,70.10
2023-05-21T11:33:18.895Z,70.10
2023-05-21T11:34:51.740Z,69.30
2023-05-21T11:36:23.613Z,69.40
2023-05-21T11:37:56.414Z,69.40
2023-05-21T11:39:28.643Z,68.90
2023-05-21T11:41:02.741Z,68.80
2023-05-21T11:42:36.261Z,69.00
2023-05-21T11:44:09.700Z,68.80
2023-05-21T11:45:46.752Z,68.60
2023-05-21T11:47:20.068Z,68.60
2023-05-21T11:48:53.639Z,67.80
2023-05-21T11:50:27.349Z,68.30
2023-05-21T11:51:59.985Z,68.20
2023-05-21T11:53:32.825Z,69.10
2023-05-21T11:55:07.345Z,68.90
2023-05-21T11:56:42.055Z,68.50
2023-05-21T11:58:16.724Z,69.10
2023-05-21T11:59:49.912Z,68.90
2023-05-21T12:01:23.326Z,69.10
2023-05-21T12:02:58.896Z,68.90
2023-05-21T12:04:31.822Z,68.60
2023-05-21T12:06:05.881Z,68.60
2023-05-21T12:07:38.761Z,68.80
2023-05-21T12:09:11.531Z,69.30
2023-05-21T12:10:45.626Z,68.30
2023-05-21T12:12:19.665Z,68.10
2023-05-21T12:13:52.554Z,68.50
2023-05-21T12:15:25.930Z,68.80
2023-05-21T12:16:58.150Z,69.30
2023-05-21T12:18:32.506Z,69.50
2023-05-21T12:20:07.941Z,69.70
2023-05-21T12:21:40.810Z,69.50
2023-05-21T12:23:19.948Z,69.40
2023-05-21T12:24:53.855Z,69.90
2023-05-21T12:26:27.133Z,70.30
2023-05-21T12:28:01.365Z,70.20
2023-05-21T12:29:35.962Z,70.10
2023-05-21T12:31:15.412Z,69.90
2023-05-21T12:32:49.709Z,70.10
2023-05-21T12:34:44.456Z,70.00
2023-05-21T12:36:24.499Z,70.40
2023-05-21T12:37:57.739Z,69.00
2023-05-21T12:39:30.542Z,68.10
2023-05-21T12:41:04.704Z,68.00
2023-05-21T12:42:39.985Z,67.70
2023-05-21T12:44:12.875Z,68.20
2023-05-21T12:45:45.705Z,68.90
2023-05-21T12:47:18.570Z,68.70
2023-05-21T12:48:51.770Z,68.20
2023-05-21T12:50:26.193Z,67.90
2023-05-21T12:51:58.973Z,67.70
2023-05-21T12:53:37.474Z,67.90
2023-05-21T12:55:11.899Z,67.20
2023-05-21T12:56:46.800Z,66.80
2023-05-21T12:58:22.729Z,67.30
2023-05-21T12:59:56.622Z,67.50
2023-05-21T13:01:28.534Z,68.00
2023-05-21T13:03:02.058Z,67.70
2023-05-21T13:04:37.108Z,67.50
2023-05-21T13:06:11.313Z,67.40
2023-05-21T13:07:46.675Z,67.10
2023-05-21T13:09:20.198Z,67.00
2023-05-21T13:10:52.991Z,67.30
2023-05-21T13:12:26.552Z,67.20
2023-05-21T13:13:58.466Z,67.60
2023-05-21T13:15:31.384Z,67.70
2023-05-21T13:17:04.312Z,67.60
2023-05-21T13:18:37.070Z,67.90
2023-05-21T13:20:12.613Z,68.40
2023-05-21T13:21:47.027Z,68.10
2023-05-21T13:23:19.840Z,67.30
2023-05-21T13:24:51.634Z,67.50
2023-05-21T13:26:24.464Z,67.50
2023-05-21T13:27:56.469Z,67.40
2023-05-21T13:29:29.378Z,67.50
2023-05-21T13:31:02.208Z,67.60
2023-05-21T13:32:34.266Z,66.90
2023-05-21T13:34:07.772Z,66.60
2023-05-21T13:35:40.838Z,66.70
2023-05-21T13:37:15.001Z,66.70
2023-05-21T13:38:47.846Z,66.00
2023-05-21T13:40:20.652Z,66.00
2023-05-21T13:41:53.528Z,66.50
2023-05-21T13:43:26.305Z,66.00
2023-05-21T13:44:59.313Z,66.20
2023-05-21T13:46:32.089Z,65.70
2023-05-21T13:48:05.212Z,65.20
2023-05-21T13:49:38.068Z,63.20
2023-05-21T13:51:10.797Z,63.30
2023-05-21T13:52:44.972Z,63.20
2023-05-21T13:54:17.766Z,62.40
2023-05-21T13:55:50.559Z,63.70
2023-05-21T13:57:23.608Z,64.50
2023-05-21T13:58:56.376Z,64.70
2023-05-21T14:00:29.301Z,64.50
2023-05-21T14:02:02.111Z,64.20
2023-05-21T14:03:35.088Z,63.40
2023-05-21T14:05:08.260Z,63.90
2023-05-21T14:06:42.141Z,64.10
2023-05-21T14:08:19.943Z,64.00
2023-05-21T14:09:52.791Z,64.20
2023-05-21T14:11:25.859Z,64.00
2023-05-21T14:13:11.880Z,64.90
2023-05-21T14:14:49.844Z,64.20
2023-05-21T14:16:24.671Z,63.40
2023-05-21T14:17:57.720Z,63.70
2023-05-21T14:19:30.576Z,63.20
2023-05-21T14:21:03.341Z,62.70
2023-05-21T14:22:39.137Z,63.00
2023-05-21T14:24:13.270Z,63.40
2023-05-21T14:25:46.049Z,63.50
2023-05-21T14:27:18.841Z,63.50
2023-05-21T14:28:51.995Z,64.40
2023-05-21T14:30:24.910Z,63.70
2023-05-21T14:31:58.312Z,63.30
2023-05-21T14:33:32.058Z,63.00
2023-05-21T14:35:05.649Z,63.50
2023-05-21T14:36:38.737Z,63.60
2023-05-21T14:38:11.647Z,63.70
2023-05-21T14:39:45.768Z,64.00
2023-05-21T14:41:18.534Z,64.20
2023-05-21T14:42:52.284Z,63.00
2023-05-21T14:44:25.115Z,62.30
2023-05-21T14:45:58.010Z,62.50
2023-05-21T14:47:30.855Z,62.60
2023-05-21T14:49:03.786Z,62.90
2023-05-21T14:50:36.888Z,63.00
2023-05-21T14:52:09.692Z,64.00
2023-05-21T14:53:42.507Z,63.10
2023-05-21T14:55:18.421Z,62.90
2023-05-21T14:56:51.209Z,62.10
2023-05-21T14:58:24.053Z,61.30
2023-05-21T14:59:56.890Z,61.10
2023-05-21T15:01:30.080Z,60.50
2023-05-21T15:03:05.970Z,60.30
2023-05-21T15:04:38.921Z,60.60
2023-05-21T15:06:11.785Z,61.40
2023-05-21T15:07:44.630Z,61.30
2023-05-21T15:09:17.517Z,61.80
2023-05-21T15:10:51.892Z,61.30
2023-05-21T15:12:24.919Z,61.40
2023-05-21T15:13:57.772Z,61.30
2023-05-21T15:15:30.710Z,61.70
2023-05-21T15:17:03.520Z,61.60
2023-05-21T15:18:36.366Z,61.90
2023-05-21T15:20:09.640Z,62.10
2023-05-21T15:21:42.424Z,62.30
2023-05-21T15:23:17.626Z,63.00
2023-05-21T15:24:50.833Z,63.00
2023-05-21T15:26:26.997Z,63.20
2023-05-21T15:27:59.874Z,62.70
2023-05-21T15:29:32.915Z,62.90
2023-05-21T15:31:05.757Z,62.40
2023-05-21T15:32:38.614Z,61.20
2023-05-21T15:34:13.584Z,60.00
2023-05-21T15:35:46.617Z,60.00
2023-05-21T15:37:19.671Z,60.30
2023-05-21T15:38:52.591Z,60.50
2023-05-21T15:40:27.055Z,60.60
2023-05-21T15:42:01.649Z,60.90
2023-05-21T15:43:34.542Z,60.70
2023-05-21T15:45:07.896Z,61.40
2023-05-21T15:46:40.788Z,61.70
2023-05-21T15:48:13.810Z,63.00
2023-05-21T15:49:46.866Z,62.60
2023-05-21T15:51:19.721Z,62.60
2023-05-21T15:52:53.533Z,62.70
2023-05-21T15:54:26.587Z,63.60
2023-05-21T15:55:59.410Z,64.20
2023-05-21T15:57:33.578Z,64.60
2023-05-21T15:59:06.421Z,64.80
2023-05-21T16:00:39.306Z,64.40
2023-05-21T16:02:12.258Z,64.30
2023-05-21T16:03:45.098Z,64.30
2023-05-21T16:05:18.077Z,64.20
2023-05-21T16:06:50.895Z,64.50
2023-05-21T16:08:23.732Z,64.70
2023-05-21T16:09:56.567Z,64.70
2023-05-21T16:11:28.771Z,64.50
2023-05-21T16:13:02.995Z,65.10
2023-05-21T16:14:35.829Z,64.90
2023-05-21T16:16:09.098Z,65.00
2023-05-21T16:17:42.085Z,65.00
2023-05-21T16:19:15.025Z,65.00
2023-05-21T16:20:48.055Z,65.30
2023-05-21T16:22:22.109Z,65.20
2023-05-21T16:23:55.010Z,65.30
2023-05-21T16:25:27.809Z,66.40
2023-05-21T16:27:00.814Z,66.40
2023-05-21T16:28:35.269Z,66.10
2023-05-21T16:30:08.642Z,66.00
2023-05-21T16:31:41.592Z,65.00
2023-05-21T16:33:14.490Z,64.00
2023-05-21T16:34:47.413Z,63.00
2023-05-21T16:36:20.364Z,62.50
2023-05-21T16:37:53.186Z,62.30
2023-05-21T16:39:26.040Z,62.10
2023-05-21T16:40:58.836Z,62.50
2023-05-21T16:42:31.718Z,62.50
2023-05-21T16:44:05.950Z,62.30
2023-05-21T16:45:40.537Z,62.60
2023-05-21T16:47:15.257Z,62.90
2023-05-21T16:48:48.058Z,63.30
2023-05-21T16:50:21.192Z,64.00
2023-05-21T16:51:54.091Z,63.80
2023-05-21T16:53:26.940Z,64.00
2023-05-21T16:54:59.703Z,64.20
2023-05-21T16:56:32.490Z,64.30
2023-05-21T16:58:05.920Z,64.70
2023-05-21T16:59:40.128Z,64.60
2023-05-21T17:01:13.222Z,64.80
2023-05-21T17:02:46.196Z,64.80
2023-05-21T17:04:19.058Z,65.00
2023-05-21T17:05:52.936Z,65.70
2023-05-21T17:07:26.615Z,65.40
2023-05-21T17:08:59.446Z,65.60
2023-05-21T17:10:33.579Z,65.40
2023-05-21T17:12:06.703Z,65.90
2023-05-21T17:13:39.581Z,65.80
2023-05-21T17:15:13.727Z,66.10
2023-05-21T17:16:46.537Z,66.40
2023-05-21T17:18:19.440Z,66.90
2023-05-21T17:19:52.327Z,67.30
2023-05-21T17:21:26.399Z,67.30
2023-05-21T17:22:59.316Z,67.50
2023-05-21T17:24:32.202Z,67.80
2023-05-21T17:26:06.960Z,68.40
2023-05-21T17:27:39.812Z,68.00
2023-05-21T17:29:12.635Z,68.10
2023-05-21T17:30:49.469Z,68.60
2023-05-21T17:32:22.675Z,68.60
2023-05-21T17:33:56.370Z,68.80
2023-05-21T17:35:29.194Z,68.90
2023-05-21T17:37:02.101Z,69.10
2023-05-21T17:38:34.888Z,69.30
2023-05-21T17:40:08.465Z,69.50
2023-05-21T17:41:41.257Z,70.10
2023-05-21T17:43:14.121Z,70.20
2023-05-21T17:44:46.935Z,70.20
2023-05-21T17:46:21.175Z,70.30
2023-05-21T17:47:54.028Z,70.50
2023-05-21T17:49:26.793Z,70.70
2023-05-21T17:50:59.549Z,71.20
2023-05-21T17:52:32.327Z,71.50
2023-05-21T17:54:05.401Z,71.30
2023-05-21T17:55:38.499Z,71.70
2023-05-21T17:57:11.985Z,72.00
2023-05-21T17:58:44.775Z,72.50
2023-05-21T18:00:17.787Z,72.90
2023-05-21T18:01:51.928Z,73.10
2023-05-21T18:03:23.900Z,73.50
2023-05-21T18:04:57.077Z,73.60
2023-05-21T18:06:28.967Z,73.70
2023-05-21T18:08:02.832Z,74.10
2023-05-21T18:09:35.771Z,74.50
2023-05-21T18:11:08.635Z,74.60
2023-05-21T18:12:41.386Z,74.80
2023-05-21T18:14:14.232Z,75.10
2023-05-21T18:15:47.934Z,75.60
2023-05-21T18:17:22.233Z,75.10
2023-05-21T18:18:55.239Z,75.30
2023-05-21T18:20:28.032Z,75.50
2023-05-21T18:22:00.883Z,75.60
2023-05-21T18:23:33.686Z,76.00
2023-05-21T18:25:06.933Z,76.00
2023-05-21T18:26:39.775Z,76.30
2023-05-21T18:28:12.558Z,76.60
2023-05-21T18:29:46.813Z,76.50
2023-05-21T18:31:20.164Z,76.70
2023-05-21T18:32:54.405Z,77.00
2023-05-21T18:34:27.225Z,77.30
2023-05-21T18:35:59.003Z,77.40
2023-05-21T18:37:31.847Z,77.90
2023-05-21T18:39:04.804Z,78.10
2023-05-21T18:40:37.952Z,78.00
2023-05-21T18:42:13.394Z,78.20
2023-05-21T18:43:47.033Z,78.50
2023-05-21T18:45:19.780Z,78.10
2023-05-21T18:46:54.372Z,78.70
2023-05-21T18:48:29.232Z,78.80
2023-05-21T18:50:02.027Z,79.00
2023-05-21T18:51:34.902Z,79.30
2023-05-21T18:53:07.644Z,79.60
2023-05-21T18:54:40.496Z,80.50
2023-05-21T18:56:13.330Z,80.00
2023-05-21T18:57:46.201Z,80.20
2023-05-21T18:59:18.979Z,81.00
2023-05-21T19:00:51.732Z,80.70
2023-05-21T19:02:25.437Z,81.00
2023-05-21T19:03:59.597Z,81.40
2023-05-21T19:05:32.478Z,81.80
2023-05-21T19:07:05.695Z,82.10
2023-05-21T19:08:38.997Z,82.10
2023-05-21T19:10:12.450Z,82.60
2023-05-21T19:11:45.421Z,82.70
2023-05-21T19:13:18.194Z,82.90
2023-05-21T19:14:51.012Z,83.20
2023-05-21T19:16:23.827Z,83.40
2023-05-21T19:17:56.864Z,83.60
2023-05-21T19:19:33.054Z,84.10
2023-05-21T19:21:05.979Z,84.30
2023-05-21T19:22:38.915Z,84.30
2023-05-21T19:24:11.755Z,84.60
2023-05-21T19:25:44.526Z,84.90
2023-05-21T19:27:17.939Z,85.30
2023-05-21T19:28:53.393Z,85.60
2023-05-21T19:30:26.810Z,85.60
2023-05-21T19:31:59.747Z,85.80
2023-05-21T19:33:32.645Z,85.90
2023-05-21T19:35:07.634Z,86.00
2023-05-21T19:36:52.367Z,86.30
2023-05-21T19:38:26.082Z,86.40
2023-05-21T19:39:58.842Z,86.60
2023-05-21T19:41:31.744Z,86.60
2023-05-21T19:43:04.845Z,86.80
2023-05-21T19:44:40.383Z,86.90
2023-05-21T19:46:13.378Z,87.00
2023-05-21T19:47:46.821Z,87.00
2023-05-21T19:49:20.045Z,87.00
2023-05-21T19:50:54.228Z,87.30
2023-05-21T19:52:27.089Z,87.30
2023-05-21T19:53:59.975Z,87.50
2023-05-21T19:55:35.340Z,87.60
2023-05-21T19:57:09.640Z,87.30
2023-05-21T19:58:47.220Z,87.70
2023-05-21T20:00:20.410Z,88.10
2023-05-21T20:01:53.336Z,88.30
2023-05-21T20:03:26.350Z,88.50
2023-05-21T20:04:59.828Z,88.70
2023-05-21T20:06:33.995Z,88.90